APL England — 9VDD2 — position and weather

sailwx.info

Track history (hours):
 
Tides and Currents Weather Stations Pressure Air Temp Water Temp Dewpoint Dewpoint Depression Visibility Wind Speed Wind Dir Waves Ship Positions

APL England

Last reported at 2017-Oct-14 10:21 UTC. Time now 2017-Oct-17 22:34 UTC.
Position N 36°13' E 014°53'.

Type: Cargo ship. MMSI: 563722000.

Date/timePositionNaut miles runAvg speedWind from/ knotsBaromVisibWave heightAir tempDewpointWater temp
2017-Oct-14 10:21N 36°13' E 014°53'615.9
2017-Oct-14 09:57N 36°17' E 014°47'716.0
2017-Oct-14 09:30N 36°19' E 014°38'816.2
2017-Oct-14 09:00N 36°21' E 014°28'816.3
2017-Oct-14 08:30N 36°23' E 014°19'816.0
2017-Oct-14 08:00N 36°26' E 014°09'816.1
2017-Oct-14 07:30N 36°28' E 013°59'815.9
2017-Oct-14 06:59N 36°31' E 013°50'916.1
2017-Oct-14 06:24N 36°36' E 013°41'716.2
2017-Oct-14 05:59N 36°40' E 013°34'816.2
2017-Oct-14 05:30N 36°45' E 013°26'39215.7
2017-Oct-13 04:31N 38°09' E 005°23'016.3
2017-Oct-13 04:30N 38°09' E 005°23'916.3
2017-Oct-13 03:56N 38°09' E 005°11'3016.3
2017-Oct-13 02:07N 38°09' E 004°33'516.3
2017-Oct-13 01:49N 38°09' E 004°27'1716.3
2017-Oct-13 00:47N 38°09' E 004°05'816.3
2017-Oct-13 00:16N 38°10' E 003°55'716.2
2017-Oct-12 23:52N 38°10' E 003°47'616.0
2017-Oct-12 23:28N 38°10' E 003°39'815.7
2017-Oct-12 22:58N 38°08' E 003°29'716.2
2017-Oct-12 22:30N 38°04' E 003°20'2116.1
2017-Oct-12 21:13N 37°55' E 002°57'416.0
2017-Oct-12 21:00N 37°53' E 002°53'4316.2
2017-Oct-12 18:22N 37°34' E 002°05'716.4
2017-Oct-12 17:55N 37°31' E 001°57'716.5
2017-Oct-12 17:30N 37°27' E 001°49'816.3
2017-Oct-12 17:00N 37°24' E 001°40'816.3
2017-Oct-12 16:30N 37°20' E 001°31'816.4
2017-Oct-12 16:00N 37°16' E 001°21'816.1
2017-Oct-12 15:30N 37°13' E 001°12'816.2
2017-Oct-12 15:00N 37°09' E 001°03'816.0
2017-Oct-12 14:30N 37°05' E 000°54'816.0
2017-Oct-12 14:01N 37°02' E 000°45'815.8
2017-Oct-12 13:30N 36°58' E 000°36'816.0
2017-Oct-12 13:00N 36°55' E 000°27'815.9
2017-Oct-12 12:30N 36°51' E 000°19'816.2
2017-Oct-12 12:00N 36°47' E 000°10'816.4
2017-Oct-12 11:30N 36°43' E 000°01'816.3
2017-Oct-12 11:00N 36°39' W 000°08'816.2
2017-Oct-12 10:30N 36°36' W 000°17'816.4
2017-Oct-12 10:00N 36°33' W 000°27'816.1
2017-Oct-12 09:30N 36°29' W 000°36'916.2
2017-Oct-12 08:56N 36°25' W 000°46'1315.9
2017-Oct-12 08:05N 36°20' W 001°02'216.1
2017-Oct-12 07:59N 36°20' W 001°04'1015.9
2017-Oct-12 07:23N 36°19' W 001°15'19216.2
2017-Oct-11 19:33N 36°01' W 005°12'117.3
2017-Oct-11 19:30N 36°01' W 005°13'917.1
2017-Oct-11 19:00N 35°58' W 005°23'68 3.2
2017-Oct-10 21:55N 35°52' W 006°46'512.1
2017-Oct-10 21:31N 35°51' W 006°52'612.5
2017-Oct-10 21:00N 35°50' W 006°60'612.5
2017-Oct-10 20:30N 35°50' W 007°08'612.6
2017-Oct-10 20:00N 35°49' W 007°15'612.5
2017-Oct-10 19:31N 35°48' W 007°23'511.0
2017-Oct-10 19:01N 35°48' W 007°30'5 9.8
2017-Oct-10 18:31N 35°47' W 007°36'5 9.9
2017-Oct-10 18:00N 35°47' W 007°42'5 9.9
2017-Oct-10 17:30N 35°46' W 007°48'510.1
2017-Oct-10 17:01N 35°46' W 007°54'510.6
2017-Oct-10 16:30N 35°46' W 008°01'510.5
2017-Oct-10 16:00N 35°45' W 008°07'510.8
2017-Oct-10 15:30N 35°45' W 008°14'510.5
2017-Oct-10 15:00N 35°44' W 008°20'1110.6
2017-Oct-10 14:00N 35°43' W 008°33'510.5
2017-Oct-10 13:30N 35°43' W 008°40'510.3
2017-Oct-10 13:00N 35°42' W 008°46'510.8
2017-Oct-10 12:30N 35°42' W 008°52'510.6
2017-Oct-10 12:00N 35°41' W 008°59'510.3
2017-Oct-10 11:29N 35°41' W 009°05'510.6
2017-Oct-10 11:01N 35°40' W 009°12'510.9
2017-Oct-10 10:31N 35°40' W 009°18'714.3
2017-Oct-10 10:00N 35°39' W 009°27'815.4
2017-Oct-10 09:31N 35°38' W 009°37'815.2
2017-Oct-10 09:00N 35°38' W 009°46'815.4
2017-Oct-10 08:30N 35°37' W 009°55'815.4
2017-Oct-10 08:00N 35°36' W 010°05'815.3
2017-Oct-10 07:30N 35°35' W 010°14'815.1
2017-Oct-10 07:01N 35°35' W 010°23'815.2
2017-Oct-10 06:30N 35°34' W 010°33'815.3
2017-Oct-10 06:00N 35°33' W 010°42'815.4
2017-Oct-10 05:30N 35°32' W 010°51'815.2
2017-Oct-10 04:59N 35°32' W 011°01'715.4
2017-Oct-10 04:31N 35°31' W 011°10'815.3
2017-Oct-10 04:01N 35°30' W 011°19'815.1
2017-Oct-10 03:30N 35°30' W 011°29'815.2
2017-Oct-10 03:00N 35°29' W 011°38'815.4
2017-Oct-10 02:30N 35°28' W 011°47'815.2
2017-Oct-10 02:00N 35°28' W 011°57'714.9
2017-Oct-10 01:30N 35°27' W 012°06'815.0
2017-Oct-10 01:00N 35°26' W 012°15'815.1
2017-Oct-10 00:30N 35°25' W 012°24'715.0
2017-Oct-10 00:00N 35°24' W 012°33'815.0
2017-Oct-09 23:30N 35°24' W 012°42'815.3
2017-Oct-09 23:00N 35°23' W 012°52'815.5
2017-Oct-09 22:30N 35°22' W 013°01'815.4
2017-Oct-09 22:00N 35°21' W 013°11'815.4
2017-Oct-09 21:31N 35°21' W 013°20'815.2
2017-Oct-09 21:00N 35°20' W 013°29'714.8
2017-Oct-09 20:30N 35°20' W 013°38'815.1
2017-Oct-09 20:00N 35°19' W 013°48'815.2
2017-Oct-09 19:30N 35°18' W 013°57'915.2
2017-Oct-09 18:55N 35°17' W 014°08'615.4
2017-Oct-09 18:30N 35°16' W 014°15'815.5
2017-Oct-09 18:00N 35°16' W 014°25'  
Track history (hours):
 
Tides and Currents Weather Stations Pressure Air Temp Water Temp Dewpoint Dewpoint Depression Visibility Wind Speed Wind Dir Waves Ship Positions

APL England

Last reported at 2017-Oct-14 10:21 UTC. Time now 2017-Oct-17 22:34 UTC.
Position N 36°13' E 014°53'.

Type: Cargo ship. MMSI: 563722000.

Date/timePositionNaut miles runAvg speedWind from/ knotsBaromVisibWave heightAir tempDewpointWater temp
2017-Oct-14 10:21N 36°13' E 014°53'615.9
2017-Oct-14 09:57N 36°17' E 014°47'716.0
2017-Oct-14 09:30N 36°19' E 014°38'816.2
2017-Oct-14 09:00N 36°21' E 014°28'816.3
2017-Oct-14 08:30N 36°23' E 014°19'816.0
2017-Oct-14 08:00N 36°26' E 014°09'816.1
2017-Oct-14 07:30N 36°28' E 013°59'815.9
2017-Oct-14 06:59N 36°31' E 013°50'916.1
2017-Oct-14 06:24N 36°36' E 013°41'716.2
2017-Oct-14 05:59N 36°40' E 013°34'816.2
2017-Oct-14 05:30N 36°45' E 013°26'39215.7
2017-Oct-13 04:31N 38°09' E 005°23'016.3
2017-Oct-13 04:30N 38°09' E 005°23'916.3
2017-Oct-13 03:56N 38°09' E 005°11'3016.3
2017-Oct-13 02:07N 38°09' E 004°33'516.3
2017-Oct-13 01:49N 38°09' E 004°27'1716.3
2017-Oct-13 00:47N 38°09' E 004°05'816.3
2017-Oct-13 00:16N 38°10' E 003°55'716.2
2017-Oct-12 23:52N 38°10' E 003°47'616.0
2017-Oct-12 23:28N 38°10' E 003°39'815.7
2017-Oct-12 22:58N 38°08' E 003°29'716.2
2017-Oct-12 22:30N 38°04' E 003°20'2116.1
2017-Oct-12 21:13N 37°55' E 002°57'416.0
2017-Oct-12 21:00N 37°53' E 002°53'4316.2
2017-Oct-12 18:22N 37°34' E 002°05'716.4
2017-Oct-12 17:55N 37°31' E 001°57'716.5
2017-Oct-12 17:30N 37°27' E 001°49'816.3
2017-Oct-12 17:00N 37°24' E 001°40'816.3
2017-Oct-12 16:30N 37°20' E 001°31'816.4
2017-Oct-12 16:00N 37°16' E 001°21'816.1
2017-Oct-12 15:30N 37°13' E 001°12'816.2
2017-Oct-12 15:00N 37°09' E 001°03'816.0
2017-Oct-12 14:30N 37°05' E 000°54'816.0
2017-Oct-12 14:01N 37°02' E 000°45'815.8
2017-Oct-12 13:30N 36°58' E 000°36'816.0
2017-Oct-12 13:00N 36°55' E 000°27'815.9
2017-Oct-12 12:30N 36°51' E 000°19'816.2
2017-Oct-12 12:00N 36°47' E 000°10'816.4
2017-Oct-12 11:30N 36°43' E 000°01'816.3
2017-Oct-12 11:00N 36°39' W 000°08'816.2
2017-Oct-12 10:30N 36°36' W 000°17'816.4
2017-Oct-12 10:00N 36°33' W 000°27'816.1
2017-Oct-12 09:30N 36°29' W 000°36'916.2
2017-Oct-12 08:56N 36°25' W 000°46'1315.9
2017-Oct-12 08:05N 36°20' W 001°02'216.1
2017-Oct-12 07:59N 36°20' W 001°04'1015.9
2017-Oct-12 07:23N 36°19' W 001°15'19216.2
2017-Oct-11 19:33N 36°01' W 005°12'117.3
2017-Oct-11 19:30N 36°01' W 005°13'917.1
2017-Oct-11 19:00N 35°58' W 005°23'68 3.2
2017-Oct-10 21:55N 35°52' W 006°46'512.1
2017-Oct-10 21:31N 35°51' W 006°52'612.5
2017-Oct-10 21:00N 35°50' W 006°60'612.5
2017-Oct-10 20:30N 35°50' W 007°08'612.6
2017-Oct-10 20:00N 35°49' W 007°15'612.5
2017-Oct-10 19:31N 35°48' W 007°23'511.0
2017-Oct-10 19:01N 35°48' W 007°30'5 9.8
2017-Oct-10 18:31N 35°47' W 007°36'5 9.9
2017-Oct-10 18:00N 35°47' W 007°42'5 9.9
2017-Oct-10 17:30N 35°46' W 007°48'510.1
2017-Oct-10 17:01N 35°46' W 007°54'510.6
2017-Oct-10 16:30N 35°46' W 008°01'510.5
2017-Oct-10 16:00N 35°45' W 008°07'510.8
2017-Oct-10 15:30N 35°45' W 008°14'510.5
2017-Oct-10 15:00N 35°44' W 008°20'1110.6
2017-Oct-10 14:00N 35°43' W 008°33'510.5
2017-Oct-10 13:30N 35°43' W 008°40'510.3
2017-Oct-10 13:00N 35°42' W 008°46'510.8
2017-Oct-10 12:30N 35°42' W 008°52'510.6
2017-Oct-10 12:00N 35°41' W 008°59'510.3
2017-Oct-10 11:29N 35°41' W 009°05'510.6
2017-Oct-10 11:01N 35°40' W 009°12'510.9
2017-Oct-10 10:31N 35°40' W 009°18'714.3
2017-Oct-10 10:00N 35°39' W 009°27'815.4
2017-Oct-10 09:31N 35°38' W 009°37'815.2
2017-Oct-10 09:00N 35°38' W 009°46'815.4
2017-Oct-10 08:30N 35°37' W 009°55'815.4
2017-Oct-10 08:00N 35°36' W 010°05'815.3
2017-Oct-10 07:30N 35°35' W 010°14'815.1
2017-Oct-10 07:01N 35°35' W 010°23'815.2
2017-Oct-10 06:30N 35°34' W 010°33'815.3
2017-Oct-10 06:00N 35°33' W 010°42'815.4
2017-Oct-10 05:30N 35°32' W 010°51'815.2
2017-Oct-10 04:59N 35°32' W 011°01'715.4
2017-Oct-10 04:31N 35°31' W 011°10'815.3
2017-Oct-10 04:01N 35°30' W 011°19'815.1
2017-Oct-10 03:30N 35°30' W 011°29'815.2
2017-Oct-10 03:00N 35°29' W 011°38'815.4
2017-Oct-10 02:30N 35°28' W 011°47'815.2
2017-Oct-10 02:00N 35°28' W 011°57'714.9
2017-Oct-10 01:30N 35°27' W 012°06'815.0
2017-Oct-10 01:00N 35°26' W 012°15'815.1
2017-Oct-10 00:30N 35°25' W 012°24'715.0
2017-Oct-10 00:00N 35°24' W 012°33'815.0
2017-Oct-09 23:30N 35°24' W 012°42'815.3
2017-Oct-09 23:00N 35°23' W 012°52'815.5
2017-Oct-09 22:30N 35°22' W 013°01'815.4
2017-Oct-09 22:00N 35°21' W 013°11'815.4
2017-Oct-09 21:31N 35°21' W 013°20'815.2
2017-Oct-09 21:00N 35°20' W 013°29'714.8
2017-Oct-09 20:30N 35°20' W 013°38'815.1
2017-Oct-09 20:00N 35°19' W 013°48'815.2
2017-Oct-09 19:30N 35°18' W 013°57'915.2
2017-Oct-09 18:55N 35°17' W 014°08'615.4
2017-Oct-09 18:30N 35°16' W 014°15'815.5
2017-Oct-09 18:00N 35°16' W 014°25'  

Dump ship's entire track history